createdAt,value
2023-03-23T15:58:57.244Z,97315.78
2023-03-23T16:01:29.941Z,97317.97
2023-03-23T16:04:07.026Z,97315.31
2023-03-23T16:06:38.482Z,97307.56
2023-03-23T16:09:11.174Z,97321.28
2023-03-23T16:11:40.711Z,97316.03
2023-03-23T16:14:09.425Z,97312.38
2023-03-23T16:16:49.697Z,97314.19
2023-03-23T16:19:24.594Z,97308.69
2023-03-23T16:21:54.509Z,97312.94
2023-03-23T16:24:25.258Z,97310.19
2023-03-23T16:26:55.494Z,97313.59
2023-03-23T16:29:46.679Z,97312.94
2023-03-23T16:32:15.606Z,97320.00
2023-03-23T16:34:46.460Z,97310.09
2023-03-23T16:37:15.676Z,97305.97
2023-03-23T16:39:45.097Z,97304.13
2023-03-23T16:42:15.834Z,97299.66
2023-03-23T16:44:45.891Z,97306.19
2023-03-23T16:47:16.228Z,97303.56
2023-03-23T16:49:46.687Z,97301.50
2023-03-23T16:52:16.214Z,97303.78
2023-03-23T16:54:45.393Z,97301.84
2023-03-23T16:57:15.029Z,97303.91
2023-03-23T16:59:44.342Z,97301.25
2023-03-23T17:02:14.629Z,97298.63
2023-03-23T17:04:47.493Z,97300.81
2023-03-23T17:07:17.815Z,97306.31
2023-03-23T17:09:48.523Z,97301.84
2023-03-23T17:12:18.557Z,97292.91
2023-03-23T17:14:48.424Z,97291.78
2023-03-23T17:17:17.671Z,97292.56
2023-03-23T17:19:49.729Z,97308.13
2023-03-23T17:22:19.713Z,97299.91
2023-03-23T17:24:49.259Z,97309.41
2023-03-23T17:27:21.938Z,97297.81
2023-03-23T17:29:51.530Z,97310.63
2023-03-23T17:32:22.336Z,97310.06
2023-03-23T17:34:53.512Z,97312.13
2023-03-23T17:37:24.252Z,97310.53
2023-03-23T17:39:54.002Z,97307.09
2023-03-23T17:42:23.926Z,97302.97
2023-03-23T17:44:53.461Z,97304.78
2023-03-23T17:47:22.341Z,97312.91
2023-03-23T17:49:53.410Z,97308.13
2023-03-23T17:52:22.772Z,97311.41
2023-03-23T17:54:54.019Z,97307.41
2023-03-23T17:57:22.866Z,97306.81
2023-03-23T17:59:52.826Z,97306.81
2023-03-23T18:02:22.864Z,97308.91
2023-03-23T18:04:55.105Z,97307.72
2023-03-23T18:07:23.970Z,97303.28
2023-03-23T18:09:53.518Z,97306.94
2023-03-23T18:12:21.941Z,97307.16
2023-03-23T18:14:52.541Z,97301.78
2023-03-23T18:17:21.763Z,97298.34
2023-03-23T18:19:50.768Z,97303.84
2023-03-23T18:22:21.213Z,97302.22
2023-03-23T18:24:49.775Z,97303.50
2023-03-23T18:27:19.478Z,97302.69
2023-03-23T18:29:48.435Z,97305.53
2023-03-23T18:32:20.294Z,97300.72
2023-03-23T18:34:49.723Z,97302.78
2023-03-23T18:37:21.328Z,97298.78
2023-03-23T18:39:51.199Z,97297.75
2023-03-23T18:42:21.227Z,97297.38
2023-03-23T18:44:50.242Z,97291.31
2023-03-23T18:47:19.522Z,97293.38
2023-03-23T18:49:51.892Z,97295.22
2023-03-23T18:52:22.299Z,97289.97
2023-03-23T18:54:51.718Z,97290.97
2023-03-23T18:57:22.757Z,97289.16
2023-03-23T18:59:52.410Z,97288.59
2023-03-23T19:02:22.759Z,97289.59
2023-03-23T19:04:52.586Z,97289.59
2023-03-23T19:07:22.399Z,97283.78
2023-03-23T19:09:51.471Z,97284.81
2023-03-23T19:12:22.725Z,97284.00
2023-03-23T19:14:52.317Z,97284.81
2023-03-23T19:17:22.104Z,97284.00
2023-03-23T19:19:52.632Z,97278.75
2023-03-23T19:22:23.065Z,97276.13
2023-03-23T19:24:53.554Z,97267.44
2023-03-23T19:27:23.160Z,97280.00
2023-03-23T19:29:52.003Z,97284.25
2023-03-23T19:32:21.500Z,97282.63
2023-03-23T19:34:51.484Z,97286.06
2023-03-23T19:37:23.314Z,97277.13
2023-03-23T19:39:53.642Z,97270.06
2023-03-23T19:42:24.366Z,97272.47
2023-03-23T19:44:54.439Z,97275.31
2023-03-23T19:47:24.535Z,97271.09
2023-03-23T19:49:57.039Z,97266.63
2023-03-23T19:52:28.773Z,97263.22
2023-03-23T19:54:59.259Z,97265.84
2023-03-23T19:57:28.887Z,97264.00
2023-03-23T19:59:59.198Z,97256.94
2023-03-23T20:02:28.561Z,97258.53
2023-03-23T20:04:57.509Z,97260.94
2023-03-23T20:07:29.179Z,97254.31
2023-03-23T20:10:00.523Z,97256.72
2023-03-23T20:12:29.408Z,97254.09
2023-03-23T20:14:58.911Z,97240.47
2023-03-23T20:17:29.381Z,97245.72
2023-03-23T20:19:59.647Z,97246.53
2023-03-23T20:22:29.998Z,97248.59
2023-03-23T20:25:00.546Z,97245.16
2023-03-23T20:27:30.337Z,97247.78
2023-03-23T20:29:59.699Z,97245.38
2023-03-23T20:32:33.169Z,97247.78
2023-03-23T20:35:06.437Z,97237.94
2023-03-23T20:37:39.177Z,97230.88
2023-03-23T20:40:12.571Z,97232.69
2023-03-23T20:42:44.112Z,97241.38
2023-03-23T20:45:16.763Z,97229.16
2023-03-23T20:47:45.898Z,97235.19
2023-03-23T20:50:15.958Z,97234.97
2023-03-23T20:52:46.265Z,97228.47
2023-03-23T20:55:16.181Z,97232.78
2023-03-23T20:57:45.238Z,97229.00
2023-03-23T21:00:18.571Z,97227.19
2023-03-23T21:02:50.170Z,97229.00
2023-03-23T21:05:22.470Z,97229.00
2023-03-23T21:07:55.798Z,97225.91
2023-03-23T21:10:26.394Z,97222.72
2023-03-23T21:12:56.593Z,97218.75
2023-03-23T21:15:27.176Z,97224.78
2023-03-23T21:17:56.793Z,97222.16
2023-03-23T21:20:27.360Z,97226.63
2023-03-23T21:22:59.404Z,97215.31
2023-03-23T21:25:33.880Z,97217.34
2023-03-23T21:28:07.310Z,97225.00
2023-03-23T21:30:37.153Z,97218.94
2023-03-23T21:33:07.483Z,97202.75
2023-03-23T21:35:38.037Z,97213.69
2023-03-23T21:38:14.655Z,97222.38
2023-03-23T21:40:45.087Z,97217.34
2023-03-23T21:43:17.098Z,97219.41
2023-03-23T21:45:47.259Z,97224.66
2023-03-23T21:48:16.794Z,97217.34
2023-03-23T21:50:46.408Z,97215.53
2023-03-23T21:53:18.254Z,97212.91
2023-03-23T21:55:51.415Z,97205.47
2023-03-23T21:58:21.116Z,97206.47
2023-03-23T22:00:54.727Z,97198.84
2023-03-23T22:03:26.371Z,97208.53
2023-03-23T22:05:56.719Z,97207.75
2023-03-23T22:08:30.303Z,97207.75
2023-03-23T22:11:03.077Z,97202.94
2023-03-23T22:13:35.698Z,97190.00
2023-03-23T22:16:07.911Z,97179.50
2023-03-23T22:18:38.866Z,97187.63
2023-03-23T22:21:08.886Z,97183.97
2023-03-23T22:23:40.642Z,97168.69
2023-03-23T22:26:11.900Z,97166.72
2023-03-23T22:28:42.995Z,97169.09
2023-03-23T22:31:17.570Z,97178.81
2023-03-23T22:33:48.525Z,97178.00
2023-03-23T22:36:18.803Z,97165.09
2023-03-23T22:38:51.382Z,97164.28
2023-03-23T22:41:23.459Z,97167.38
2023-03-23T22:43:53.735Z,97162.38
2023-03-23T22:46:23.859Z,97153.69
2023-03-23T22:48:53.471Z,97142.59
2023-03-23T22:51:23.473Z,97144.66
2023-03-23T22:53:56.523Z,97144.66
2023-03-23T22:56:26.532Z,97133.56
2023-03-23T22:58:57.268Z,97124.31
2023-03-23T23:01:28.096Z,97135.06
2023-03-23T23:03:57.781Z,97130.03
2023-03-23T23:06:26.919Z,97117.13
2023-03-23T23:08:58.595Z,97127.59
2023-03-23T23:11:28.153Z,97117.34
2023-03-23T23:13:57.995Z,97121.00
2023-03-23T23:16:28.735Z,97114.16
2023-03-23T23:18:58.410Z,97120.63
2023-03-23T23:21:29.614Z,97121.69
2023-03-23T23:24:01.997Z,97104.34
2023-03-23T23:26:32.359Z,97097.47
2023-03-23T23:29:03.589Z,97098.50
2023-03-23T23:31:35.372Z,97109.00
2023-03-23T23:34:06.491Z,97084.81
2023-03-23T23:36:38.259Z,97086.88
2023-03-23T23:39:10.112Z,97082.66
2023-03-23T23:41:40.187Z,97089.91
2023-03-23T23:44:09.256Z,97077.03
2023-03-23T23:46:40.096Z,97071.22
2023-03-23T23:49:11.210Z,97075.09
2023-03-23T23:51:41.927Z,97076.09
2023-03-23T23:54:15.412Z,97074.97
2023-03-23T23:56:44.565Z,97063.31
2023-03-23T23:59:15.311Z,97064.78
